Euskara    
Meteorología y climatología de Navarra
Datos de la estación - Meteo Navarra

Estación de Bera (Larrategaña) GN

Altitud 306 m.


Datos desde el 23/02/2021 hasta el 24/02/2021 en horario solar
Los datos son PROVISIONALES

Anterior Página 1 de 1 Siguiente Descargar: Formato para Excel 2000 o superior   Formato csv   Formato para OpenOffice Calc
Fecha Temperatura Humedad relativa Radiación global Insolación Precipitación Vel. viento 10 m Vel. viento 10 m Dir. viento 10 m
°C % W/m² s l/m² m/s km/h °
23/02/2021 0:00 6.2 99 0.0 0 0.0 3.7 13.2 217
23/02/2021 0:10 6.5 99 0.0 0 0.0 2.6 9.5 214
23/02/2021 0:20 6.6 96 0.0 0 0.0 1.6 5.8 218
23/02/2021 0:30 7.0 93 0.0 0 0.0 1.7 6.0 214
23/02/2021 0:40 6.8 95 0.0 0 0.0 1.7 6.1 241
23/02/2021 0:50 6.7 95 0.0 0 0.0 2.1 7.6 243
23/02/2021 1:00 6.7 94 0.0 0 0.0 1.1 3.9 278
23/02/2021 1:10 6.5 95 0.0 0 0.0 1.2 4.4 31
23/02/2021 1:20 6.7 95 0.0 0 0.0 0.6 2.0 70
23/02/2021 1:30 6.7 95 0.0 0 0.0 0.9 3.1 40
23/02/2021 1:40 7.2 91 0.0 0 0.0 0.6 2.2 104
23/02/2021 1:50 8.0 84 0.0 0 0.0 0.7 2.5 185
23/02/2021 2:00 7.6 87 0.0 0 0.0 0.6 2.0 337
23/02/2021 2:10 7.2 89 0.0 0 0.0 0.4 1.4 211
23/02/2021 2:20 7.0 90 0.0 0 0.0 0.5 1.6 131
23/02/2021 2:30 7.2 89 0.0 0 0.0 1.2 4.3 174
23/02/2021 2:40 7.4 87 0.0 0 0.0 1.3 4.7 223
23/02/2021 2:50 7.3 88 0.0 0 0.0 2.4 8.5 217
23/02/2021 3:00 7.4 88 0.0 0 0.0 3.4 12.4 218
23/02/2021 3:10 8.0 85 0.0 0 0.0 3.6 12.8 208
23/02/2021 3:20 8.5 82 0.0 0 0.0 4.2 15.0 210
23/02/2021 3:30 8.6 82 0.0 0 0.0 4.4 15.7 208
23/02/2021 3:40 8.8 81 0.0 0 0.0 4.4 15.8 208
23/02/2021 3:50 9.2 79 0.0 0 0.0 4.2 15.3 204
23/02/2021 4:00 8.9 80 0.0 0 0.0 3.4 12.2 211
23/02/2021 4:10 8.4 83 0.0 0 0.0 4.1 14.7 208
23/02/2021 4:20 8.5 82 0.0 0 0.0 4.5 16.2 212
23/02/2021 4:30 8.8 81 0.0 0 0.1 4.6 16.5 207
23/02/2021 4:40 8.6 82 0.0 0 0.0 4.1 14.9 211
23/02/2021 4:50 9.1 79 0.0 0 0.0 4.8 17.3 212
23/02/2021 5:00 9.2 78 0.0 0 0.0 4.7 17.0 212
23/02/2021 5:10 9.1 79 0.0 0 0.0 4.5 16.3 219
23/02/2021 5:20 9.4 77 0.0 0 0.0 3.8 13.6 226
23/02/2021 5:30 9.3 78 0.0 0 0.0 3.5 12.4 220
23/02/2021 5:40 9.3 78 0.0 0 0.0 4.2 15.0 207
23/02/2021 5:50 10.1 74 0.0 0 0.0 4.7 16.8 205
23/02/2021 6:00 10.3 73 0.0 0 0.0 5.6 20.2 201
23/02/2021 6:10 10.4 72 0.0 0 0.0 5.1 18.3 188
23/02/2021 6:20 10.7 70 0.0 0 0.0 6.2 22.2 201
23/02/2021 6:30 10.7 70 0.0 0 0.0 5.5 19.9 192
23/02/2021 6:40 10.7 69 0.0 0 0.0 4.7 17.0 201
23/02/2021 6:50 10.7 69 0.0 0 0.0 5.4 19.3 198
23/02/2021 7:00 10.6 69 0.0 0 0.0 4.5 16.1 214
23/02/2021 7:10 10.1 72 0.0 0 0.0 3.5 12.6 215
23/02/2021 7:20 10.1 72 27.4 314 0.0 3.9 14.1 209
23/02/2021 7:30 10.2 72 59.7 600 0.0 4.2 15.0 219
23/02/2021 7:40 10.2 73 86.1 600 0.0 6.7 24.0 212
23/02/2021 7:50 10.5 71 116.1 600 0.0 6.6 23.8 202
23/02/2021 8:00 10.7 70 145.8 600 0.0 6.6 23.7 199
23/02/2021 8:10 11.0 68 177.7 600 0.0 6.9 24.7 206
23/02/2021 8:20 11.1 67 209.9 600 0.0 8.0 28.7 208
23/02/2021 8:30 11.0 68 239.9 600 0.0 10.5 37.8 202
23/02/2021 8:40 10.9 69 269.7 600 0.0 8.8 31.7 195
23/02/2021 8:50 11.1 68 303.4 600 0.0 6.7 24.2 185
23/02/2021 9:00 11.0 69 285.1 500 0.0 7.4 26.6 203
23/02/2021 9:10 11.0 70 345.7 574 0.0 6.8 24.5 208
23/02/2021 9:20 11.1 69 342.5 488 0.0 6.8 24.5 207
23/02/2021 9:30 11.3 69 377.3 506 0.0 7.7 27.7 211
23/02/2021 9:40 11.5 69 352.6 446 0.0 6.7 24.0 212
23/02/2021 9:50 11.7 69 343.7 400 0.0 6.8 24.6 212
23/02/2021 10:00 12.0 68 486.6 590 0.0 6.1 21.9 211
23/02/2021 10:10 12.5 67 517.5 592 0.0 5.4 19.6 216
23/02/2021 10:20 13.0 65 531.3 586 0.0 4.0 14.5 220
23/02/2021 10:30 13.3 63 560.8 600 0.0 3.4 12.2 206
23/02/2021 10:40 13.8 62 575.3 600 0.0 4.1 14.8 223
23/02/2021 10:50 13.9 61 597.1 600 0.0 4.3 15.5 225
23/02/2021 11:00 14.2 60 611.9 600 0.0 4.8 17.4 226
23/02/2021 11:10 14.6 59 615.7 590 0.0 4.3 15.5 210
23/02/2021 11:20 14.9 57 629.2 600 0.0 5.5 19.8 199
23/02/2021 11:30 15.0 55 637.8 600 0.0 8.2 29.6 210
23/02/2021 11:40 15.0 54 647.7 600 0.0 8.0 28.9 211
23/02/2021 11:50 15.4 52 658.4 600 0.0 7.9 28.5 198
23/02/2021 12:00 15.5 51 663.4 600 0.0 9.0 32.4 199
23/02/2021 12:10 15.7 51 669.2 600 0.0 7.4 26.7 197
23/02/2021 12:20 15.9 52 670.1 600 0.0 7.6 27.2 203
23/02/2021 12:30 15.8 52 608.0 522 0.0 7.0 25.3 215
23/02/2021 12:40 15.9 51 614.5 504 0.0 6.9 24.7 224
23/02/2021 12:50 16.0 50 715.4 600 0.0 7.2 25.8 221
23/02/2021 13:00 16.5 48 679.1 600 0.0 6.1 21.9 207
23/02/2021 13:10 16.9 47 662.0 600 0.0 6.5 23.4 213
23/02/2021 13:20 16.8 46 647.5 600 0.0 8.7 31.2 206
23/02/2021 13:30 16.5 46 643.9 600 0.0 9.2 33.0 207
23/02/2021 13:40 16.5 46 624.8 600 0.0 9.2 33.2 203
23/02/2021 13:50 17.0 46 610.4 598 0.0 5.0 17.9 199
23/02/2021 14:00 17.4 46 593.9 600 0.0 4.5 16.1 184
23/02/2021 14:10 17.3 45 520.8 544 0.0 6.5 23.3 202
23/02/2021 14:20 17.0 45 540.2 588 0.0 8.5 30.6 204
23/02/2021 14:30 17.0 44 533.4 600 0.0 8.5 30.6 200
23/02/2021 14:40 17.0 45 511.9 600 0.0 8.2 29.6 211
23/02/2021 14:50 17.2 45 487.9 600 0.0 7.3 26.1 198
23/02/2021 15:00 17.2 45 462.4 600 0.0 8.0 28.8 200
23/02/2021 15:10 17.0 44 437.3 600 0.0 8.1 29.3 192
23/02/2021 15:20 17.0 45 412.0 600 0.0 8.0 28.8 197
23/02/2021 15:30 16.9 45 382.2 600 0.0 8.3 29.9 199
23/02/2021 15:40 16.7 45 350.5 600 0.0 8.5 30.7 204
23/02/2021 15:50 16.8 45 323.6 600 0.0 7.4 26.8 205
23/02/2021 16:00 16.7 45 293.6 600 0.0 7.6 27.2 205
23/02/2021 16:10 16.6 46 261.1 600 0.0 7.5 26.9 196
23/02/2021 16:20 16.5 46 230.6 600 0.0 9.2 33.2 202
23/02/2021 16:30 16.4 46 200.7 600 0.0 9.0 32.5 199
23/02/2021 16:40 16.2 47 170.9 600 0.0 9.3 33.6 200
23/02/2021 16:50 16.2 47 147.2 600 0.0 8.8 31.6 197
23/02/2021 17:00 16.1 47 122.5 600 0.0 8.6 30.9 201
23/02/2021 17:10 16.0 47 96.4 600 0.0 7.3 26.3 198
23/02/2021 17:20 15.9 48 68.8 600 0.0 7.0 25.1 192
23/02/2021 17:30 15.7 49 44.5 600 0.0 7.4 26.7 199
23/02/2021 17:40 15.4 49 10.5 70 0.0 7.5 26.9 198
23/02/2021 17:50 15.3 49 0.0 0 0.0 7.4 26.6 194
23/02/2021 18:00 15.2 50 0.0 0 0.0 7.5 27.1 196
23/02/2021 18:10 15.1 51 0.0 0 0.0 6.9 24.8 195
23/02/2021 18:20 15.1 50 0.0 0 0.0 8.9 31.9 198
23/02/2021 18:30 15.2 50 0.0 0 0.0 8.0 28.6 186
23/02/2021 18:40 15.1 50 0.0 0 0.0 7.3 26.1 190
23/02/2021 18:50 15.1 50 0.0 0 0.0 7.9 28.3 192
23/02/2021 19:00 15.1 49 0.0 0 0.0 7.2 26.0 196
23/02/2021 19:10 15.1 48 0.0 0 0.0 6.9 24.9 193
23/02/2021 19:20 15.0 49 0.0 0 0.0 6.4 23.0 198
23/02/2021 19:30 14.8 50 0.0 0 0.0 5.8 20.8 194
23/02/2021 19:40 14.6 51 0.0 0 0.0 5.5 19.9 201
23/02/2021 19:50 14.6 51 0.0 0 0.0 6.7 23.9 203
23/02/2021 20:00 14.5 52 0.0 0 0.0 6.4 22.9 201
23/02/2021 20:10 14.6 52 0.0 0 0.0 7.5 26.8 197
23/02/2021 20:20 14.7 52 0.0 0 0.0 7.3 26.2 196
23/02/2021 20:30 14.6 52 0.0 0 0.0 6.5 23.5 205
23/02/2021 20:40 14.4 53 0.0 0 0.0 6.6 23.9 202
23/02/2021 20:50 14.3 55 0.0 0 0.0 6.4 22.9 205
23/02/2021 21:00 14.1 56 0.0 0 0.0 6.7 24.2 209
23/02/2021 21:10 14.2 56 0.0 0 0.0 7.3 26.2 212
23/02/2021 21:20 14.0 56 0.0 0 0.0 7.2 25.9 211
23/02/2021 21:30 14.0 57 0.0 0 0.0 6.9 24.9 208
23/02/2021 21:40 14.0 57 0.0 0 0.0 6.5 23.5 207
23/02/2021 21:50 13.9 58 0.0 0 0.0 6.7 24.0 206
23/02/2021 22:00 14.0 58 0.0 0 0.0 7.4 26.5 208
23/02/2021 22:10 13.9 58 0.0 0 0.0 7.7 27.7 204
23/02/2021 22:20 13.8 59 0.0 0 0.0 8.3 29.7 206
23/02/2021 22:30 13.7 59 0.0 0 0.0 8.0 28.8 203
23/02/2021 22:40 13.7 59 0.0 0 0.0 8.4 30.2 206
23/02/2021 22:50 13.6 59 0.0 0 0.0 7.3 26.3 201
23/02/2021 23:00 13.5 60 0.0 0 0.0 7.4 26.5 210
23/02/2021 23:10 13.5 59 0.0 0 0.0 6.4 23.0 206
23/02/2021 23:20 13.4 60 0.0 0 0.0 6.8 24.4 208
23/02/2021 23:30 13.4 60 0.0 0 0.0 6.5 23.5 216
23/02/2021 23:40 13.2 60 0.0 0 0.0 5.6 20.3 216
23/02/2021 23:50 13.1 61 0.0 0 0.0 5.8 21.0 215
Anterior Página 1 de 1 Siguiente

NOTA: Tipo de datos según el color:
   - Valores diarios o 10 minutos correctos
   - Valores diarios calculados a partir de un número de datos 10 minutos menor que 144 y mayor que 120, o de un número de datos semihorarios menor que 48 y mayor que 40 (caso de las estaciones de INTIA Y Ministerio)
   - Valores diez minutos estimados


Contacto        Enlaces        Aviso legal